ES-0185 weather

Aeródromo Pelayos de la Presa
Pelayos de la Presa, Madrid, Spain

Public forecast

Using degrees Celsius for public forecast. Weather courtesy of forecast.io.

Closest aviation weather report (METAR) to Aeródromo Pelayos de la Presa

Closest report is Getafe Air Base, 30.5 nm (56.5 km) E. Retrieved 2019/10/18 17:00 UTC (27 minutes ago):

LEGT 181700Z 23009KT 200V260 9999 FEW024 20/14 Q1015

Closest aviation forecast (TAF) to Aeródromo Pelayos de la Presa

Forecast is more than 12 hours old.

Closest forecast is Getafe Air Base, 30.5 nm (56.5 km) E. Retrieved 2018/03/28 12:33 UTC (2 years ago):

TAF LEGT 281100Z 2812/2824 24010KT CAVOK PROB40 TEMPO 2814/2818 27015G25KT TEMPO 2820/2824 28008KT